Time;durP1;ratioP1;P1;durP2;ratioP2;P2;SDS_P1;SDS_P2;PMS_P1;PMS_P2;Temp;Humidity;BMP_temperature;BMP_pressure;BME280_temperature;BME280_humidity;BME280_pressure;Samples;Min_cycle;Max_cycle;Signal;HPM_P1;HPM_P2
2022/12/22 03:26:10;;;;;;;14.37;12.97;;;;;;;9.81;72.13;97214.34;8312859;28;20237;-69
2022/12/22 03:30:13;;;;;;;13.97;12.57;;;;;;;9.71;72.13;97211.41;8318816;28;20228;-70
2022/12/22 03:34:16;;;;;;;13.70;12.40;;;;;;;9.74;72.25;97208.66;8319034;28;20239;-69
2022/12/22 03:38:20;;;;;;;15.03;13.53;;;;;;;9.68;72.88;97200.41;8319099;28;20225;-69
2022/12/22 03:46:43;;;;;;;13.73;12.33;;;;;;;9.76;72.56;97193.88;8318755;28;20247;-69
2022/12/22 03:50:46;;;;;;;14.40;13.00;;;;;;;9.86;72.53;97194.25;8318693;28;20252;-70
2022/12/22 03:54:50;;;;;;;13.73;12.27;;;;;;;9.94;71.64;97176.56;8318612;28;20237;-69
2022/12/22 03:58:53;;;;;;;13.67;12.27;;;;;;;9.80;72.96;97166.13;8318045;28;20227;-70
2022/12/22 04:02:57;;;;;;;14.07;12.57;;;;;;;9.56;74.70;97155.34;8318261;28;20402;-69
2022/12/22 04:07:00;;;;;;;12.90;11.60;;;;;;;9.93;72.84;97156.78;8318172;28;20545;-69
2022/12/22 04:15:26;;;;;;;13.40;12.00;;;;;;;9.88;71.70;97169.13;8317618;28;20234;-69
2022/12/22 04:19:29;;;;;;;12.90;11.57;;;;;;;9.81;72.33;97134.19;8317565;28;20247;-69
2022/12/22 04:23:32;;;;;;;12.77;11.43;;;;;;;9.93;72.47;97150.78;8316392;28;20241;-70
2022/12/22 04:27:36;;;;;;;13.20;11.90;;;;;;;9.95;72.50;97164.47;8317698;28;20238;-69
2022/12/22 04:31:38;;;;;;;12.60;11.30;;;;;;;9.90;72.48;97148.34;8317396;28;20235;-69
2022/12/22 04:35:41;;;;;;;11.97;10.77;;;;;;;10.06;72.22;97154.34;8317391;28;20223;-69
2022/12/22 04:39:44;;;;;;;11.50;10.40;;;;;;;10.00;72.01;97144.34;8316351;28;20243;-70
2022/12/22 04:43:48;;;;;;;11.27;10.07;;;;;;;10.15;71.77;97120.22;8316909;28;20520;-69
2022/12/22 04:47:51;;;;;;;11.20;10.10;;;;;;;10.04;71.76;97113.97;8316745;28;20450;-69
2022/12/22 04:51:54;;;;;;;11.07;9.97;;;;;;;10.01;72.03;97130.47;8316422;28;20255;-68
2022/12/22 04:55:59;;;;;;;10.87;9.70;;;;;;;10.22;71.55;97133.63;8316482;28;20241;-69
2022/12/22 05:00:04;;;;;;;11.60;10.50;;;;;;;10.06;71.74;97119.91;8316542;28;20241;-69
2022/12/22 05:04:07;;;;;;;10.97;9.87;;;;;;;10.12;72.46;97119.56;8316310;28;20247;-69
2022/12/22 05:08:10;;;;;;;10.73;9.63;;;;;;;10.16;71.85;97119.28;8316296;28;20233;-69
2022/12/22 05:16:31;;;;;;;10.13;9.13;;;;;;;10.03;72.36;97102.78;8303183;28;20230;-69
2022/12/22 05:20:35;;;;;;;10.90;9.80;;;;;;;10.11;71.26;97103.19;8316032;28;20524;-69
2022/12/22 05:24:38;;;;;;;10.67;9.63;;;;;;;9.69;71.56;97027.09;8315992;28;20426;-69
2022/12/22 05:28:41;;;;;;;10.97;9.83;;;;;;;10.25;70.82;97097.25;8315701;28;20240;-69
2022/12/22 05:32:45;;;;;;;10.07;9.07;;;;;;;10.13;70.94;97101.34;8315594;28;20422;-69
2022/12/22 05:36:48;;;;;;;10.67;9.60;;;;;;;10.12;71.57;97104.03;8315382;28;20233;-69
2022/12/22 05:40:51;;;;;;;10.10;9.10;;;;;;;10.24;71.18;97092.97;8315299;28;20233;-68
2022/12/22 05:44:57;;;;;;;11.47;10.40;;;;;;;10.01;71.36;97085.69;8314981;28;20524;-68
2022/12/22 05:49:01;;;;;;;11.23;10.23;;;;;;;10.23;71.33;97095.66;8314884;28;20237;-68
2022/12/22 05:53:04;;;;;;;12.80;10.70;;;;;;;10.05;71.60;97111.31;8314485;28;20434;-68
2022/12/22 05:57:06;;;;;;;12.03;10.83;;;;;;;9.90;72.68;97099.19;8314788;28;20232;-69
2022/12/22 06:01:09;;;;;;;12.10;10.97;;;;;;;10.07;71.85;97111.19;8314814;28;20240;-68
2022/12/22 06:05:14;;;;;;;11.57;10.53;;;;;;;9.98;72.07;97115.16;8314381;28;20259;-68
2022/12/22 06:09:17;;;;;;;11.83;10.73;;;;;;;9.97;72.11;97105.72;8314211;28;20232;-69
2022/12/22 06:13:20;;;;;;;11.73;10.40;;;;;;;9.95;73.04;97099.78;8314395;28;20227;-68
2022/12/22 06:17:23;;;;;;;11.17;10.13;;;;;;;10.14;71.04;97082.31;8314156;28;20236;-68
2022/12/22 06:21:27;;;;;;;12.00;10.20;;;;;;;10.06;71.59;97075.94;8314250;28;20227;-68
2022/12/22 06:25:30;;;;;;;11.30;10.20;;;;;;;10.16;71.18;97071.88;8314390;28;20251;-68
2022/12/22 06:29:32;;;;;;;10.57;9.40;;;;;;;9.97;71.75;97036.69;8314050;28;20234;-68
2022/12/22 06:33:35;;;;;;;9.87;8.87;;;;;;;10.13;72.33;97069.50;8313824;28;20233;-67
2022/12/22 06:37:39;;;;;;;10.87;9.37;;;;;;;10.27;71.46;97079.88;8314186;28;20224;-68
2022/12/22 06:46:02;;;;;;;9.93;8.90;;;;;;;10.10;71.59;97036.03;8313365;28;20237;-67
2022/12/22 06:50:06;;;;;;;8.70;7.93;;;;;;;10.24;72.24;97069.69;8313383;28;20260;-67
2022/12/22 06:54:10;;;;;;;10.50;7.73;;;;;;;10.25;72.39;97067.94;8313489;28;20257;-67
2022/12/22 06:58:13;;;;;;;9.27;8.30;;;;;;;10.16;73.89;97064.13;8313775;28;20298;-67
2022/12/22 07:02:16;;;;;;;10.07;7.07;;;;;;;10.19;73.01;97061.38;8316252;28;20542;-67
2022/12/22 07:06:19;;;;;;;8.63;7.73;;;;;;;10.20;74.09;97059.59;8320028;28;20296;-68
2022/12/22 07:10:56;;;;;;;8.97;7.67;;;;;;;10.25;74.14;97053.25;8320190;28;20228;-68
2022/12/22 07:14:46;;;;;;;8.67;7.33;;;;;;;10.25;74.45;97055.84;8319476;28;20426;-67
2022/12/22 07:18:49;;;;;;;9.27;8.37;;;;;;;10.38;73.29;97053.41;8319715;28;20225;-68
2022/12/22 07:22:54;;;;;;;8.83;7.33;;;;;;;10.41;73.57;97048.03;8319674;28;20238;-67
2022/12/22 07:26:59;;;;;;;8.83;7.90;;;;;;;10.22;74.55;97037.06;8318741;28;20233;-67
2022/12/22 07:31:02;;;;;;;8.70;7.17;;;;;;;10.30;74.32;97053.84;8319393;28;20229;-67
2022/12/22 07:35:06;;;;;;;8.03;6.47;;;;;;;10.50;73.27;97042.31;8319203;28;20431;-67
2022/12/22 07:39:09;;;;;;;8.43;6.83;;;;;;;10.28;74.22;97034.13;8319081;28;20233;-67
2022/12/22 07:43:13;;;;;;;8.07;6.43;;;;;;;10.41;74.00;97026.50;8318679;28;20411;-68
2022/12/22 07:47:16;;;;;;;9.13;6.73;;;;;;;9.95;74.49;96994.56;8318814;28;20222;-67
2022/12/22 07:51:19;;;;;;;7.73;5.80;;;;;;;10.40;73.62;97030.88;8318748;28;20541;-68
2022/12/22 07:55:23;;;;;;;8.30;5.90;;;;;;;10.53;72.87;97029.22;8318447;28;20568;-67
2022/12/22 07:59:27;;;;;;;5.60;5.00;;;;;;;10.66;72.96;97038.84;8318563;28;20229;-67
2022/12/22 08:03:30;;;;;;;6.13;4.93;;;;;;;10.44;74.09;97036.69;8318200;28;20425;-67
2022/12/22 08:07:32;;;;;;;5.60;4.60;;;;;;;11.18;71.85;97037.47;8318380;28;20234;-68
2022/12/22 08:11:36;;;;;;;4.43;4.03;;;;;;;12.93;65.38;97043.44;8318178;28;20226;-68
2022/12/22 08:15:40;;;;;;;6.20;4.23;;;;;;;12.35;65.68;97036.03;8316736;28;20242;-68
2022/12/22 08:19:42;;;;;;;6.57;3.97;;;;;;;11.91;67.70;97035.44;8317476;28;20234;-68
2022/12/22 08:23:45;;;;;;;3.50;3.20;;;;;;;11.59;70.04;97024.47;8317728;28;20548;-68
2022/12/22 08:27:51;;;;;;;5.40;3.27;;;;;;;11.49;70.60;97038.97;8317683;28;20230;-68
2022/12/22 08:31:55;;;;;;;4.43;2.97;;;;;;;11.28;71.07;97043.72;8317006;28;20514;-66
2022/12/22 08:35:58;;;;;;;5.20;2.83;;;;;;;11.20;71.34;97040.78;8317141;28;20245;-67
2022/12/22 08:40:12;;;;;;;3.87;2.60;;;;;;;11.02;71.96;97035.78;8316984;28;20518;-67
2022/12/22 08:44:15;;;;;;;6.07;2.30;;;;;;;11.26;70.79;97040.41;8317155;28;20234;-67
2022/12/22 08:48:19;;;;;;;3.80;1.93;;;;;;;11.30;70.76;97045.28;8317075;28;20237;-67
2022/12/22 08:52:22;;;;;;;3.20;1.67;;;;;;;11.34;71.16;97043.34;8317299;28;20417;-67
2022/12/22 08:56:25;;;;;;;4.87;2.00;;;;;;;11.49;69.75;97032.00;8316746;28;20235;-67
2022/12/22 09:00:27;;;;;;;4.47;2.00;;;;;;;11.64;70.37;97037.19;8316706;28;20223;-68
2022/12/22 09:04:33;;;;;;;3.10;1.70;;;;;;;11.64;69.95;97039.78;8316779;28;20238;-67
2022/12/22 09:08:36;;;;;;;4.40;2.00;;;;;;;11.38;71.50;97033.63;8316506;28;20229;-67
2022/12/22 09:12:39;;;;;;;4.23;1.60;;;;;;;11.47;71.12;97035.66;8316356;28;20237;-67
2022/12/22 09:16:42;;;;;;;4.30;1.50;;;;;;;11.58;70.77;97038.41;8316238;28;20227;-67
2022/12/22 09:20:46;;;;;;;5.07;1.70;;;;;;;11.78;69.42;97020.72;8315965;28;20414;-68
2022/12/22 09:24:49;;;;;;;5.80;1.60;;;;;;;11.98;68.76;97035.06;8315500;28;20418;-68
2022/12/22 09:28:52;;;;;;;4.13;1.30;;;;;;;12.07;68.97;97022.31;8315611;28;20234;-69
2022/12/22 09:32:55;;;;;;;4.77;1.23;;;;;;;11.73;68.30;97015.84;8315366;28;20383;-68
2022/12/22 09:36:59;;;;;;;4.97;1.27;;;;;;;12.01;68.41;97025.28;8315269;28;20230;-68
2022/12/22 09:41:07;;;;;;;4.97;1.60;;;;;;;11.97;68.57;97017.81;8315277;28;20234;-68
2022/12/22 09:45:18;;;;;;;4.77;1.20;;;;;;;12.12;68.75;97022.81;8315157;28;20234;-68
2022/12/22 09:49:22;;;;;;;37.67;17.63;;;;;;;13.16;75.77;97029.72;8315396;28;20522;-68
2022/12/22 09:53:26;;;;;;;12.57;5.57;;;;;;;13.38;70.09;97021.25;8314942;28;20466;-68
2022/12/22 09:57:32;;;;;;;7.63;3.00;;;;;;;13.52;67.54;97027.25;8314744;28;20231;-67
2022/12/22 10:01:54;;;;;;;6.23;1.73;;;;;;;13.44;62.73;97023.44;8314625;28;20234;-68
2022/12/22 10:06:04;;;;;;;7.03;1.87;;;;;;;13.08;63.98;97025.03;8314469;28;20239;-68
2022/12/22 10:10:19;;;;;;;4.83;1.50;;;;;;;13.04;63.60;97025.34;8314768;28;20236;-68
2022/12/22 10:14:24;;;;;;;5.50;2.00;;;;;;;13.62;62.06;97012.66;8314435;28;20228;-68
2022/12/22 10:18:29;;;;;;;5.73;2.53;;;;;;;13.98;61.10;97014.34;8314647;28;20430;-67
2022/12/22 10:22:33;;;;;;;7.35;2.80;;;;;;;13.84;60.35;96993.69;8313464;28;20597;-68
2022/12/22 10:26:37;;;;;;;6.63;1.83;;;;;;;13.56;62.28;97023.50;8314381;28;20232;-68
2022/12/22 10:30:41;;;;;;;4.83;2.00;;;;;;;13.32;61.85;97016.47;8314416;28;20230;-68
2022/12/22 10:34:58;;;;;;;8.67;2.57;;;;;;;13.14;62.08;97018.59;8314208;28;20228;-67
2022/12/22 10:39:04;;;;;;;5.03;1.80;;;;;;;13.07;62.17;97025.97;8313301;28;20280;-66
2022/12/22 10:43:09;;;;;;;5.37;1.80;;;;;;;12.99;62.37;97001.47;8313803;28;20432;-68
2022/12/22 10:47:14;;;;;;;5.33;1.83;;;;;;;12.71;63.15;97017.16;8314045;28;20239;-68
2022/12/22 10:51:25;;;;;;;8.37;2.03;;;;;;;12.58;62.70;97005.94;8313567;28;20537;-68
2022/12/22 10:55:29;;;;;;;3.77;1.80;;;;;;;12.58;62.63;96995.56;8313587;28;20308;-68
2022/12/22 10:59:33;;;;;;;5.10;2.03;;;;;;;12.58;62.20;96982.56;8313869;28;20232;-68
2022/12/22 11:03:36;;;;;;;6.87;1.97;;;;;;;12.50;62.49;96962.31;8313516;28;20233;-67
2022/12/22 11:07:41;;;;;;;7.07;1.77;;;;;;;12.57;62.63;97004.28;8313604;28;20304;-67
2022/12/22 11:11:47;;;;;;;4.90;1.60;;;;;;;12.36;62.24;96978.00;8313485;28;20237;-68
2022/12/22 11:15:56;;;;;;;5.00;1.30;;;;;;;12.22;62.88;96991.06;8313568;28;20250;-69
2022/12/22 11:20:17;;;;;;;4.57;1.30;;;;;;;12.04;62.31;96921.28;8313153;28;20234;-69
2022/12/22 11:24:28;;;;;;;4.53;1.40;;;;;;;12.37;62.82;96984.03;8313335;28;20233;-69
2022/12/22 11:28:42;;;;;;;3.53;1.10;;;;;;;12.27;64.38;96991.59;8313455;28;20234;-68
2022/12/22 11:32:58;;;;;;;2.47;1.10;;;;;;;12.44;64.40;96988.69;8313108;28;20237;-68
2022/12/22 11:37:07;;;;;;;3.57;1.20;;;;;;;12.49;64.52;96972.84;8312292;28;20230;-68
2022/12/22 11:41:20;;;;;;;2.57;1.10;;;;;;;12.33;65.76;96976.44;8312913;28;20548;-67
2022/12/22 11:45:37;;;;;;;5.13;1.50;;;;;;;12.22;66.51;96965.97;8313095;28;20231;-68
2022/12/22 11:50:00;;;;;;;3.77;1.30;;;;;;;12.09;67.16;96978.09;8316312;28;20229;-68
2022/12/22 11:54:40;;;;;;;2.13;0.90;;;;;;;12.24;66.70;96971.88;8318201;28;20302;-69
2022/12/22 11:58:54;;;;;;;3.80;1.40;;;;;;;12.12;67.69;96977.88;8318583;28;20410;-68
2022/12/22 12:03:15;;;;;;;2.07;0.93;;;;;;;12.21;67.26;96979.03;8317970;28;20226;-68
2022/12/22 12:07:24;;;;;;;2.53;1.00;;;;;;;12.07;68.30;96979.94;8318064;28;20321;-68
2022/12/22 12:11:33;;;;;;;2.60;0.83;;;;;;;12.06;69.43;96983.47;8318049;28;20227;-68
2022/12/22 12:15:39;;;;;;;2.53;1.00;;;;;;;12.07;69.53;96977.34;8318111;28;20524;-68
2022/12/22 12:20:08;;;;;;;1.17;0.60;;;;;;;12.02;70.41;96993.22;8317660;28;20433;-68
2022/12/22 12:24:35;;;;;;;1.63;0.80;;;;;;;11.96;70.59;96977.25;8317307;28;20622;-68
2022/12/22 12:28:46;;;;;;;2.80;0.80;;;;;;;12.02;70.63;96982.03;8317722;28;20549;-68
2022/12/22 12:32:53;;;;;;;1.10;0.77;;;;;;;11.78;71.62;96972.25;8316965;28;20231;-68
2022/12/22 12:36:59;;;;;;;1.23;0.80;;;;;;;11.93;71.22;96971.28;8317018;28;20246;-68
2022/12/22 12:41:07;;;;;;;1.83;0.70;;;;;;;11.60;71.92;96961.34;8316903;28;20234;-68
2022/12/22 12:45:34;;;;;;;1.43;0.90;;;;;;;11.66;71.99;96978.25;8316966;28;20238;-68
2022/12/22 12:49:59;;;;;;;1.93;0.97;;;;;;;11.68;71.85;96986.78;8316818;28;20234;-68
2022/12/22 12:54:22;;;;;;;3.70;0.80;;;;;;;11.71;71.84;97012.53;8316529;28;20238;-67
2022/12/22 12:58:56;;;;;;;2.80;0.90;;;;;;;11.48;72.54;97014.81;8316156;28;20229;-68
2022/12/22 13:03:01;;;;;;;1.77;0.70;;;;;;;11.54;73.27;97016.19;8316525;28;20305;-68
2022/12/22 13:07:04;;;;;;;2.73;0.90;;;;;;;11.46;73.79;97011.50;8316609;28;20332;-68
2022/12/22 13:11:30;;;;;;;2.60;0.83;;;;;;;11.67;73.01;97022.25;8316485;28;20230;-69
2022/12/22 13:20:29;;;;;;;3.13;0.87;;;;;;;11.77;71.70;97025.09;8416675;27;20540;-67
2022/12/22 13:24:36;;;;;;;2.50;1.00;;;;;;;11.63;71.65;97036.34;8408464;28;20251;-67
2022/12/22 13:28:40;;;;;;;1.27;0.83;;;;;;;11.51;72.21;97035.34;8408333;28;20240;-67
2022/12/22 13:32:45;;;;;;;1.93;0.73;;;;;;;11.65;71.73;97031.03;8408441;28;20481;-67
2022/12/22 13:36:50;;;;;;;1.43;0.80;;;;;;;11.79;72.16;97049.16;8408841;28;20240;-67
2022/12/22 13:40:53;;;;;;;2.10;0.60;;;;;;;11.71;71.71;97038.47;8440750;28;20342;-67
2022/12/22 13:44:56;;;;;;;1.63;1.00;;;;;;;11.89;71.44;97050.25;8474766;28;20227;-67
2022/12/22 13:49:01;;;;;;;3.20;0.87;;;;;;;11.93;70.88;97063.88;8474599;28;20453;-67
2022/12/22 13:53:08;;;;;;;1.17;0.80;;;;;;;11.65;71.78;97078.59;8474517;28;20237;-67
2022/12/22 13:57:15;;;;;;;3.43;2.10;;;;;;;11.69;71.38;97081.78;8474307;28;20347;-67
2022/12/22 14:01:19;;;;;;;2.47;0.80;;;;;;;11.80;70.73;97087.13;8474591;28;20393;-67
2022/12/22 14:05:23;;;;;;;2.70;0.70;;;;;;;11.65;71.07;97082.91;8474189;28;20227;-67
2022/12/22 14:09:27;;;;;;;1.17;0.70;;;;;;;11.60;71.75;97095.34;8474100;28;20234;-68
2022/12/22 14:13:31;;;;;;;2.97;0.70;;;;;;;11.74;71.27;97118.66;8474198;28;20421;-67
2022/12/22 14:17:35;;;;;;;2.10;0.80;;;;;;;11.73;71.99;97127.38;8473814;28;20238;-67
2022/12/22 14:21:39;;;;;;;2.17;0.70;;;;;;;11.53;72.65;97129.41;8473388;28;20227;-67
2022/12/22 14:25:44;;;;;;;2.67;1.00;;;;;;;11.76;71.91;97131.53;8473649;28;20227;-67
2022/12/22 14:29:48;;;;;;;0.93;0.80;;;;;;;11.49;73.04;97114.16;8461489;28;20224;-68
2022/12/22 14:33:52;;;;;;;1.57;0.80;;;;;;;11.45;72.13;97129.06;8451030;28;20235;-68
2022/12/22 14:38:12;;;;;;;2.00;0.90;;;;;;;11.74;71.63;97150.59;8450320;28;20234;-69
2022/12/22 14:42:17;;;;;;;2.70;0.80;;;;;;;11.60;72.46;97150.63;8450679;28;20514;-68
2022/12/22 14:46:20;;;;;;;2.60;0.70;;;;;;;11.54;72.29;97151.03;8450598;28;20246;-68
2022/12/22 14:50:25;;;;;;;1.13;0.60;;;;;;;11.30;72.57;97148.16;8450383;28;20519;-68
2022/12/22 14:54:28;;;;;;;1.57;0.80;;;;;;;11.52;72.37;97160.66;8450169;28;20216;-69
2022/12/22 14:58:34;;;;;;;2.13;0.67;;;;;;;11.45;72.52;97146.38;8450030;28;20227;-68
2022/12/22 15:02:39;;;;;;;1.93;0.80;;;;;;;11.61;73.17;97187.75;8449975;28;20231;-68
2022/12/22 15:06:44;;;;;;;1.93;1.00;;;;;;;11.63;73.07;97196.28;8450034;28;20228;-68
2022/12/22 15:10:47;;;;;;;1.80;1.23;;;;;;;11.48;73.67;97188.53;8449688;28;20223;-69
2022/12/22 15:14:51;;;;;;;1.33;1.10;;;;;;;11.70;72.50;97205.38;8449298;28;20227;-68
2022/12/22 15:18:54;;;;;;;1.73;1.30;;;;;;;11.45;72.06;97188.69;8448734;28;20235;-68
2022/12/22 15:22:57;;;;;;;1.37;0.90;;;;;;;11.57;72.29;97215.63;8449140;28;20227;-68
2022/12/22 15:26:59;;;;;;;1.17;1.00;;;;;;;11.74;71.67;97231.00;8449166;28;20224;-68
2022/12/22 15:31:06;;;;;;;2.03;1.10;;;;;;;11.57;72.23;97240.75;8448855;28;20393;-68
2022/12/22 15:35:18;;;;;;;2.33;1.20;;;;;;;11.50;72.73;97237.69;8448722;28;20224;-69
2022/12/22 15:39:22;;;;;;;1.60;0.97;;;;;;;11.58;72.66;97250.22;8448750;28;20539;-68
2022/12/22 15:43:24;;;;;;;0.97;0.80;;;;;;;11.40;73.24;97241.75;8447245;28;20224;-69
2022/12/22 15:47:51;;;;;;;2.83;1.00;;;;;;;11.67;72.66;97258.28;8448204;28;20501;-69
2022/12/22 15:51:55;;;;;;;1.90;1.00;;;;;;;11.64;72.83;97268.00;8447337;28;20296;-68
2022/12/22 15:55:58;;;;;;;1.87;0.77;;;;;;;11.61;72.58;97279.34;8447894;28;20235;-69
2022/12/22 16:00:01;;;;;;;3.17;1.30;;;;;;;11.67;72.41;97276.41;8447981;28;20301;-69
2022/12/22 16:04:05;;;;;;;1.57;1.10;;;;;;;11.67;72.77;97278.16;8447754;28;20506;-71
2022/12/22 16:08:11;;;;;;;5.93;1.23;;;;;;;11.53;72.96;97277.22;8447676;28;20234;-68
2022/12/22 16:12:20;;;;;;;2.37;0.90;;;;;;;11.71;72.03;97292.63;8445924;28;20212;-68
2022/12/22 16:16:22;;;;;;;2.73;1.00;;;;;;;11.79;71.49;97293.00;8447375;28;20515;-69
2022/12/22 16:20:29;;;;;;;1.40;1.30;;;;;;;11.77;71.57;97299.22;8447289;28;20314;-68
2022/12/22 16:24:40;;;;;;;3.37;2.40;;;;;;;11.80;71.63;97294.66;8447353;28;20304;-69
2022/12/22 16:28:42;;;;;;;2.50;1.73;;;;;;;11.71;70.98;97300.41;8447366;28;20236;-68
2022/12/22 16:32:45;;;;;;;3.23;1.63;;;;;;;11.77;71.09;97305.25;8446917;28;20260;-68
2022/12/22 16:36:49;;;;;;;5.83;3.90;;;;;;;11.84;70.60;97303.94;8447009;28;20228;-69
2022/12/22 16:40:53;;;;;;;4.73;3.47;;;;;;;11.83;71.00;97297.09;8445920;28;20480;-69
2022/12/22 16:44:56;;;;;;;3.70;2.10;;;;;;;11.36;70.76;97212.56;8446655;28;20239;-69
2022/12/22 16:49:01;;;;;;;2.13;1.10;;;;;;;11.75;71.10;97291.53;8446556;28;20227;-69
2022/12/22 16:53:06;;;;;;;3.00;1.30;;;;;;;11.29;70.12;97198.31;8446402;28;20298;-68
2022/12/22 16:57:08;;;;;;;1.00;0.93;;;;;;;11.93;70.01;97316.38;8446659;28;20227;-68
2022/12/22 17:01:20;;;;;;;1.80;1.20;;;;;;;11.16;69.66;97187.84;8446165;28;20238;-68
2022/12/22 17:05:29;;;;;;;2.97;1.40;;;;;;;11.97;69.35;97311.84;8445667;28;20287;-68
2022/12/22 17:09:44;;;;;;;1.40;1.20;;;;;;;11.94;69.30;97312.03;8445872;28;20422;-69
2022/12/22 17:13:48;;;;;;;1.37;1.00;;;;;;;11.91;69.77;97314.81;8444596;28;20223;-70
2022/12/22 17:17:52;;;;;;;2.57;1.40;;;;;;;12.03;69.51;97321.88;8444707;28;20244;-67
2022/12/22 17:21:55;;;;;;;2.27;1.00;;;;;;;12.04;69.26;97320.09;8445010;28;20235;-67
2022/12/22 17:26:01;;;;;;;2.10;1.20;;;;;;;11.82;69.30;97307.53;8445860;28;20452;-68
2022/12/22 17:30:06;;;;;;;2.83;1.47;;;;;;;11.88;69.46;97308.03;8445368;28;20239;-68
2022/12/22 17:34:18;;;;;;;2.47;1.30;;;;;;;11.99;69.56;97311.75;8445328;28;20277;-68
2022/12/22 17:38:24;;;;;;;2.93;1.27;;;;;;;12.00;69.39;97300.47;8445591;28;20335;-68
2022/12/22 17:42:31;;;;;;;1.87;0.90;;;;;;;11.81;69.95;97301.53;8445503;28;20247;-68
2022/12/22 17:46:33;;;;;;;3.70;1.40;;;;;;;11.69;70.05;97290.13;8445397;28;20223;-70
2022/12/22 17:50:36;;;;;;;2.90;1.67;;;;;;;11.88;70.59;97307.16;8445434;28;20289;-69
2022/12/22 17:54:40;;;;;;;4.47;2.83;;;;;;;11.53;70.69;97217.59;8444955;28;20228;-68
2022/12/22 17:58:44;;;;;;;4.27;1.77;;;;;;;11.69;71.95;97292.72;8445425;28;20234;-68
2022/12/22 18:02:47;;;;;;;4.30;2.17;;;;;;;11.84;71.46;97279.75;8445218;28;20236;-68
2022/12/22 18:06:50;;;;;;;6.33;2.00;;;;;;;11.78;71.87;97290.50;8451053;28;20535;-69
2022/12/22 18:10:53;;;;;;;9.03;2.60;;;;;;;11.80;71.72;97286.06;8450664;28;20239;-69
2022/12/22 18:14:57;;;;;;;10.20;2.67;;;;;;;11.68;72.15;97279.84;8451229;28;20546;-68
2022/12/22 18:19:00;;;;;;;9.97;2.50;;;;;;;11.60;72.61;97262.16;8450881;28;20239;-68
2022/12/22 18:23:03;;;;;;;11.67;2.97;;;;;;;11.69;72.06;97269.38;8450825;28;20231;-68
2022/12/22 18:27:06;;;;;;;9.57;2.93;;;;;;;11.79;71.27;97266.25;8450721;28;20227;-68
2022/12/22 18:31:10;;;;;;;14.27;3.40;;;;;;;11.89;71.30;97269.94;8450169;28;20223;-68
2022/12/22 18:35:13;;;;;;;10.90;2.80;;;;;;;11.72;72.62;97274.38;8450420;28;20235;-68
2022/12/22 18:39:19;;;;;;;10.60;3.10;;;;;;;11.84;71.30;97259.84;8450453;28;20549;-68
2022/12/22 18:43:22;;;;;;;10.83;3.00;;;;;;;11.73;72.02;97278.66;8450147;28;20227;-67
2022/12/22 18:47:26;;;;;;;14.17;3.83;;;;;;;11.76;71.67;97259.47;8449790;28;20227;-67
2022/12/22 18:51:29;;;;;;;16.17;6.30;;;;;;;11.84;71.73;97253.81;8450235;28;20232;-68
2022/12/22 18:55:32;;;;;;;20.37;9.67;;;;;;;11.88;71.74;97252.69;8450299;28;20224;-67
2022/12/22 18:59:36;;;;;;;15.47;7.23;;;;;;;11.93;71.91;97251.50;8449860;28;20232;-68
2022/12/22 19:03:40;;;;;;;16.93;6.77;;;;;;;11.86;71.22;97223.41;8449509;28;20448;-69
2022/12/22 19:07:43;;;;;;;14.60;5.03;;;;;;;11.86;71.20;97229.44;8449962;28;20227;-67
2022/12/22 19:11:46;;;;;;;11.50;4.17;;;;;;;11.97;70.88;97241.78;8449676;28;20231;-68
2022/12/22 19:15:50;;;;;;;11.50;3.97;;;;;;;12.01;70.36;97232.03;8449474;28;20220;-68
2022/12/22 19:19:54;;;;;;;14.10;3.73;;;;;;;11.89;71.19;97228.41;8448654;28;20236;-68
2022/12/22 19:23:57;;;;;;;17.00;4.37;;;;;;;11.99;70.91;97231.31;8446102;28;20230;-69
2022/12/22 19:28:05;;;;;;;14.10;3.90;;;;;;;12.00;70.24;97227.81;8447116;28;20223;-68
2022/12/22 19:32:13;;;;;;;13.77;4.47;;;;;;;12.08;69.70;97235.94;8448588;28;20239;-68
2022/12/22 19:36:20;;;;;;;16.60;5.80;;;;;;;12.09;69.85;97229.84;8448627;28;20329;-67
2022/12/22 19:40:28;;;;;;;16.63;6.17;;;;;;;12.07;69.22;97218.69;8448329;28;20333;-68
2022/12/22 19:44:31;;;;;;;16.20;5.57;;;;;;;11.95;69.77;97207.31;8448448;28;20411;-67
2022/12/22 19:48:34;;;;;;;18.27;5.03;;;;;;;11.81;69.76;97192.56;8448837;28;20230;-68
2022/12/22 19:52:38;;;;;;;13.50;5.67;;;;;;;11.94;69.65;97190.09;8448553;28;20287;-67
2022/12/22 19:56:41;;;;;;;13.17;4.87;;;;;;;11.87;69.53;97199.97;8448545;28;20231;-67
2022/12/22 20:00:45;;;;;;;15.33;5.17;;;;;;;11.85;69.77;97190.63;8448140;28;20232;-67
2022/12/22 20:04:48;;;;;;;15.17;5.97;;;;;;;11.82;69.42;97177.84;8447859;28;20227;-69
2022/12/22 20:08:53;;;;;;;12.50;5.10;;;;;;;11.70;70.09;97185.44;8448096;28;20554;-69
2022/12/22 20:12:57;;;;;;;13.37;4.87;;;;;;;11.88;69.33;97183.50;8447441;28;20337;-69
2022/12/22 20:17:00;;;;;;;11.13;4.17;;;;;;;11.90;69.09;97173.88;8447633;28;20240;-69
2022/12/22 20:21:05;;;;;;;16.63;4.90;;;;;;;11.71;69.34;97168.97;8447200;28;20236;-69
2022/12/22 20:25:14;;;;;;;10.23;4.17;;;;;;;11.84;68.93;97160.41;8447687;28;20234;-69
2022/12/22 20:29:18;;;;;;;12.77;3.80;;;;;;;11.75;69.49;97151.47;8446176;28;20224;-69
2022/12/22 20:33:23;;;;;;;9.57;3.77;;;;;;;11.76;69.55;97147.91;8446997;28;20216;-69
2022/12/22 20:37:29;;;;;;;11.80;3.90;;;;;;;11.86;68.75;97151.63;8446473;28;20326;-69
2022/12/22 20:41:34;;;;;;;13.10;4.70;;;;;;;11.81;68.85;97153.66;8445501;28;20428;-69
2022/12/22 20:45:38;;;;;;;10.60;3.80;;;;;;;11.77;68.68;97143.59;8445449;28;20231;-69
2022/12/22 20:49:42;;;;;;;8.77;3.60;;;;;;;11.69;69.46;97151.81;8444037;28;20300;-68
2022/12/22 20:53:47;;;;;;;10.07;3.80;;;;;;;11.78;68.87;97146.06;8446340;28;20507;-69
2022/12/22 20:57:52;;;;;;;10.33;3.00;;;;;;;11.62;68.95;97143.59;8446044;28;20498;-69
2022/12/22 21:01:58;;;;;;;9.40;3.50;;;;;;;11.52;68.49;97124.34;8444440;28;20247;-69
2022/12/22 21:06:02;;;;;;;12.57;4.03;;;;;;;11.64;69.15;97133.97;8445964;28;20220;-69
2022/12/22 21:10:07;;;;;;;11.77;4.20;;;;;;;11.66;68.85;97137.28;8444798;28;20578;-70
2022/12/22 21:14:15;;;;;;;11.23;3.70;;;;;;;11.59;68.75;97091.09;8444107;28;20264;-69
2022/12/22 21:18:21;;;;;;;11.23;3.90;;;;;;;11.76;68.66;97118.56;8445364;28;20530;-69
2022/12/22 21:22:24;;;;;;;12.17;4.60;;;;;;;11.65;68.84;97122.66;8446083;28;20219;-69
2022/12/22 21:26:30;;;;;;;12.97;4.53;;;;;;;11.49;68.94;97114.97;8445228;28;20232;-68
2022/12/22 21:30:35;;;;;;;9.53;3.50;;;;;;;11.50;69.60;97108.88;8445649;28;20219;-68
2022/12/22 21:34:38;;;;;;;13.37;4.17;;;;;;;11.24;69.83;97105.28;8445336;28;20250;-67
2022/12/22 21:38:41;;;;;;;13.90;3.73;;;;;;;11.45;69.40;97102.31;8446563;28;20223;-67
2022/12/22 21:42:45;;;;;;;11.37;3.40;;;;;;;11.37;69.56;97082.06;8452302;28;20250;-67
2022/12/22 21:46:50;;;;;;;13.90;3.60;;;;;;;11.15;69.81;97041.88;8452215;28;20223;-67
2022/12/22 21:50:53;;;;;;;9.97;3.30;;;;;;;11.47;69.52;97090.09;8450764;28;20227;-67
2022/12/22 21:54:57;;;;;;;11.30;3.27;;;;;;;11.42;70.04;97079.97;8451696;28;20224;-67
2022/12/22 21:59:00;;;;;;;11.13;3.40;;;;;;;11.56;69.52;97076.56;8450777;28;20230;-68
2022/12/22 22:03:07;;;;;;;9.43;3.50;;;;;;;11.43;69.53;97066.13;8451420;28;20239;-68
2022/12/22 22:07:11;;;;;;;11.60;3.53;;;;;;;11.48;69.73;97068.41;8451149;28;20231;-68
2022/12/22 22:11:17;;;;;;;12.60;3.63;;;;;;;11.43;69.34;97054.91;8451523;28;20280;-68
2022/12/22 22:15:22;;;;;;;14.87;4.00;;;;;;;11.29;70.16;97045.38;8450806;28;20273;-67
2022/12/22 22:19:26;;;;;;;9.80;3.30;;;;;;;11.38;69.68;97052.59;8450059;28;20231;-67
2022/12/22 22:23:29;;;;;;;12.63;3.40;;;;;;;11.42;69.96;97050.66;8451207;28;20329;-69
2022/12/22 22:27:32;;;;;;;10.77;3.20;;;;;;;11.34;69.96;97030.38;8450773;28;20261;-69
2022/12/22 22:31:35;;;;;;;12.43;4.07;;;;;;;11.37;70.13;97042.34;8450569;28;20254;-67
2022/12/22 22:35:40;;;;;;;10.93;3.57;;;;;;;11.10;70.32;97004.22;8450322;28;20232;-67
2022/12/22 22:39:43;;;;;;;13.20;3.40;;;;;;;11.50;69.77;97032.88;8448881;28;20407;-67
2022/12/22 22:43:46;;;;;;;17.33;3.87;;;;;;;11.54;69.53;97023.97;8450390;28;20236;-68
2022/12/22 22:47:50;;;;;;;10.70;3.17;;;;;;;11.51;69.59;97024.16;8450711;28;20235;-68
2022/12/22 22:51:54;;;;;;;13.37;3.70;;;;;;;11.37;70.79;97013.81;8449569;28;20519;-68
2022/12/22 22:56:01;;;;;;;12.40;3.23;;;;;;;11.37;69.98;96990.50;8450254;28;20246;-68